This is the latest recevied weather packets stored in our database for station/object KA0WKG. If no packets are shown the sender has not sent any weather packets the latest 10 day(s).
| Time | Temp. | Humidity | Pressure | Rain* | Wind** | Luminosity | Snow |
|---|---|---|---|---|---|---|---|
| 1777873209 | 9.44° C | 66% | 1007.9 hPa | 0 mm | - | - | - |
| 1777870208 | 10° C | 66% | 1008.6 hPa | 0 mm | - | - | - |
| 1777869609 | 11.11° C | 59% | 1008.4 hPa | 0 mm | - | - | - |
| 1777868109 | 11.67° C | 58% | 1008.8 hPa | 0 mm | - | - | - |
| 1777866909 | 11.11° C | 60% | 1008.6 hPa | 0 mm | - | - | - |
| 1777865708 | 11.67° C | 58% | 1008.5 hPa | 0 mm | - | - | - |
| 1777860008 | 16.11° C | 43% | 1007.9 hPa | 0 mm | - | - | - |
| 1777857908 | 18.89° C | 37% | 1008.2 hPa | 0 mm | - | - | - |
| 1777857308 | 19.44° C | 34% | 1008.2 hPa | 0 mm | - | - | - |
| 1777857009 | 20° C | 33% | 1008.2 hPa | 0 mm | - | - | - |
| 1777855808 | 21.11° C | 28% | 1008.3 hPa | 0 mm | - | - | - |
| 1777854608 | 21.67° C | 28% | 1008.3 hPa | 0 mm | - | - | - |
| 1777848908 | 23.33° C | 25% | 1009.2 hPa | 0 mm | - | - | - |
| 1777847107 | 23.33° C | 25% | 1009.5 hPa | 0 mm | - | - | - |
| 1777846808 | 22.78° C | 23% | 1009.6 hPa | 0 mm | - | - | - |
| 1777837806 | 22.22° C | 27% | 1012.3 hPa | 0 mm | - | - | - |
| 1777837506 | 22.22° C | 27% | 1012.4 hPa | 0 mm | - | - | - |
| 1777836306 | 21.67° C | 28% | 1012.6 hPa | 0 mm | - | - | - |
| 1777835408 | 21.67° C | 28% | 1012.7 hPa | 0 mm | - | - | - |
| 1777834807 | 21.67° C | 29% | 1012.9 hPa | 0 mm | - | - | - |
| 1777830606 | 20.56° C | 31% | 1014.2 hPa | 0 mm | - | - | - |
| 1777827306 | 18.89° C | 35% | 1014.7 hPa | 0 mm | - | - | - |
| 1777824905 | 18.89° C | 38% | 1015.1 hPa | 0 mm | - | - | - |
| 1777821306 | 16.11° C | 42% | 1015.2 hPa | 0 mm | - | - | - |
| 1777819505 | 14.44° C | 46% | 1015.2 hPa | 0 mm | - | - | - |
* Rain latest hour (hover to see other rain measurements)
** Current wind speed in m/s (hover to see current wind gust speed)